Lewiston, ID

11:40 PM PDT ye 23 August, 2016 (GMT -0700)
Modie | | Change Station

Elev 883 ft 46.40 °N, 117.02 °W | Updated 10 minutes ago

Clear
Klara
62.5 °F
Feels Like 62.5 °F
N
0.0
Vento Variema Vento from WSW

Hodie
High -- | Low -- °F
--% Chance of Precip.
Yesterday
High -- | Low -- °F
Precip. -- in
Presuro 30.11 in
Videbleso 10.0 milii
Clouds Klara
Rosifopunto 44 °F
Humideso 51%
Rainfall 0.00 in
Snow Depth Not available.
5:57 AM 7:42 PM
Waning Gibbous, 60% visible
METAR KLWS 240556Z AUTO 18006KT 10SM CLR 20/03 A3012 RMK AO2 SLP194 T02000033 10283 20194 51011
Presuro 30.11 in
Videbleso 10.0 milii
Clouds Klara
Rosifopunto 44 °F
Humideso 51%
Rainfall 0.00 in
Snow Depth Not available.
5:57 AM 7:42 PM
Waning Gibbous, 60% visible
METAR KLWS 240556Z AUTO 18006KT 10SM CLR 20/03 A3012 RMK AO2 SLP194 T02000033 10283 20194 51011

10-Day Weather Forecast

Almanac

Astronomy

Aug. 23, 2016 Rise Set
Actual Time
Civil Twilight
Nautical Twilight
Astronomical Twilight
Moon
Length Of Visible Light
Length of Day
Tomorrow will be .
, % of the Moon is Illuminated

Today's Extremes

State Highs State Lows

Community

WunderPhotos

Upload Photos

1,934,555 photos uploaded!

WunderBlog® & News

Nearby

Air Quality

  Air Quality AQ Index Pollutant
Not available.

Snow Depth

Station Depth Elevation

Earthquake Activity

City Distance Mag. Time & Date
Minimum magnitude displayed is 2.5.

Coastal Water Temperatures

Loko Temperaturo

Stations

Nearby Weather Stations

Station Location Temp Ventokoldeso Rosifopunto Humideso Vento Precip. Elev Aktualigita Type
                   

Watches & Warnings

There are currently no watches in effect.